createdAt,value
2022-08-03T00:01:49.699Z,17.43
2022-08-03T00:04:16.493Z,17.43
2022-08-03T00:06:43.327Z,17.35
2022-08-03T00:09:11.239Z,17.33
2022-08-03T00:11:38.233Z,17.34
2022-08-03T00:14:06.673Z,17.28
2022-08-03T00:16:33.520Z,17.24
2022-08-03T00:19:01.122Z,17.23
2022-08-03T00:21:28.838Z,17.16
2022-08-03T00:23:55.564Z,17.14
2022-08-03T00:26:22.428Z,17.12
2022-08-03T00:28:50.028Z,17.02
2022-08-03T00:31:16.840Z,17.00
2022-08-03T00:33:59.584Z,16.93
2022-08-03T00:36:30.116Z,16.96
2022-08-03T00:38:56.950Z,16.93
2022-08-03T00:41:23.650Z,16.82
2022-08-03T00:43:50.633Z,16.78
2022-08-03T00:46:21.382Z,16.78
2022-08-03T00:48:52.454Z,16.85
2022-08-03T00:51:21.665Z,16.90
2022-08-03T00:53:49.513Z,16.85
2022-08-03T00:56:17.541Z,16.83
2022-08-03T00:58:45.540Z,16.90
2022-08-03T01:01:12.973Z,16.88
2022-08-03T01:03:40.906Z,16.83
2022-08-03T01:06:13.479Z,16.86
2022-08-03T01:09:02.753Z,16.83
2022-08-03T01:11:59.725Z,16.73
2022-08-03T01:14:38.390Z,16.64
2022-08-03T01:17:19.667Z,16.54
2022-08-03T01:19:56.489Z,16.53
2022-08-03T01:22:37.959Z,16.58
2022-08-03T01:25:13.825Z,16.43
2022-08-03T01:27:58.590Z,16.43
2022-08-03T01:30:31.705Z,16.45
2022-08-03T01:33:11.606Z,16.43
2022-08-03T01:36:03.558Z,16.42
2022-08-03T01:38:34.469Z,16.41
2022-08-03T01:41:07.244Z,16.41
2022-08-03T01:44:27.853Z,16.41
2022-08-03T01:46:25.309Z,16.50
2022-08-03T01:48:53.948Z,16.41
2022-08-03T01:51:22.550Z,16.46
2022-08-03T01:53:52.266Z,16.45
2022-08-03T01:56:22.492Z,16.46
2022-08-03T01:58:51.669Z,16.30
2022-08-03T02:01:20.821Z,16.31
2022-08-03T02:03:56.685Z,16.25
2022-08-03T02:07:01.813Z,16.18
2022-08-03T02:09:21.166Z,16.18
2022-08-03T02:11:49.387Z,16.15
2022-08-03T02:14:17.284Z,16.19
2022-08-03T02:16:46.105Z,16.20
2022-08-03T02:19:14.631Z,16.18
2022-08-03T02:21:55.701Z,16.16
2022-08-03T02:24:22.954Z,16.13
2022-08-03T02:26:51.519Z,16.09
2022-08-03T02:29:40.168Z,16.08
2022-08-03T02:32:11.760Z,15.97
2022-08-03T02:34:42.421Z,15.97
2022-08-03T02:37:10.904Z,15.99
2022-08-03T02:39:39.293Z,16.01
2022-08-03T02:42:08.740Z,15.96
2022-08-03T02:44:36.956Z,15.86
2022-08-03T02:47:11.333Z,15.79
2022-08-03T02:49:49.759Z,15.76
2022-08-03T02:52:19.549Z,15.76
2022-08-03T02:54:48.878Z,15.70
2022-08-03T02:57:16.636Z,15.63
2022-08-03T02:59:45.134Z,15.59
2022-08-03T03:02:13.406Z,15.57
2022-08-03T03:04:58.094Z,15.55
2022-08-03T03:07:28.807Z,15.48
2022-08-03T03:09:58.764Z,15.49
2022-08-03T03:12:27.898Z,15.41
2022-08-03T03:14:54.642Z,15.39
2022-08-03T03:17:22.583Z,15.41
2022-08-03T03:19:51.315Z,15.39
2022-08-03T03:22:18.824Z,15.40
2022-08-03T03:24:47.366Z,15.43
2022-08-03T03:27:17.321Z,15.39
2022-08-03T03:29:44.469Z,15.29
2022-08-03T03:32:11.331Z,15.42
2022-08-03T03:34:38.257Z,15.42
2022-08-03T03:37:05.755Z,15.47
2022-08-03T03:39:32.690Z,15.46
2022-08-03T03:42:01.898Z,15.49
2022-08-03T03:44:30.325Z,15.45
2022-08-03T03:47:00.189Z,15.41
2022-08-03T03:49:27.357Z,15.42
2022-08-03T03:51:55.611Z,15.40
2022-08-03T03:54:22.423Z,15.41
2022-08-03T03:56:56.361Z,15.38
2022-08-03T03:59:23.081Z,15.42
2022-08-03T04:01:58.498Z,15.47
2022-08-03T04:04:44.431Z,15.47
2022-08-03T04:07:30.016Z,15.41
2022-08-03T04:10:16.778Z,15.43
2022-08-03T04:12:49.979Z,15.48
2022-08-03T04:15:22.713Z,15.48
2022-08-03T04:17:50.939Z,15.40
2022-08-03T04:20:21.347Z,15.44
2022-08-03T04:22:51.403Z,15.42
2022-08-03T04:25:21.051Z,15.47
2022-08-03T04:28:29.399Z,15.54
2022-08-03T04:30:38.970Z,15.61
2022-08-03T04:33:07.198Z,15.63
2022-08-03T04:36:02.184Z,15.77
2022-08-03T04:38:25.754Z,15.78
2022-08-03T04:40:53.172Z,15.84
2022-08-03T04:43:22.673Z,15.94
2022-08-03T04:45:51.365Z,16.00
2022-08-03T04:48:20.106Z,16.01
2022-08-03T04:50:47.977Z,16.09
2022-08-03T04:53:14.790Z,16.09
2022-08-03T04:55:41.524Z,16.14
2022-08-03T04:58:08.237Z,16.26
2022-08-03T05:00:35.167Z,16.35
2022-08-03T05:03:01.908Z,16.45
2022-08-03T05:05:34.636Z,16.51
2022-08-03T05:08:15.261Z,16.56
2022-08-03T05:10:42.033Z,16.61
2022-08-03T05:13:12.136Z,16.63
2022-08-03T05:15:42.983Z,16.71
2022-08-03T05:18:13.926Z,16.80
2022-08-03T05:20:41.266Z,16.84
2022-08-03T05:23:07.989Z,16.99
2022-08-03T05:25:34.868Z,17.05
2022-08-03T05:28:01.793Z,17.08
2022-08-03T05:30:33.610Z,17.12
2022-08-03T05:33:02.543Z,17.21
2022-08-03T05:35:57.546Z,17.22
2022-08-03T05:38:24.054Z,17.35
2022-08-03T05:41:21.489Z,17.42
2022-08-03T05:43:45.221Z,17.53
2022-08-03T05:46:13.204Z,17.62
2022-08-03T05:48:40.412Z,17.74
2022-08-03T05:51:11.865Z,17.86
2022-08-03T05:53:43.181Z,17.96
2022-08-03T05:56:14.104Z,18.07
2022-08-03T05:58:42.735Z,18.11
2022-08-03T06:01:09.663Z,18.18
2022-08-03T06:03:36.214Z,18.28
2022-08-03T06:06:02.978Z,18.41
2022-08-03T06:08:29.961Z,18.52
2022-08-03T06:10:56.676Z,18.66
2022-08-03T06:13:23.394Z,18.90
2022-08-03T06:15:50.155Z,19.15
2022-08-03T06:18:16.942Z,19.22
2022-08-03T06:20:43.660Z,19.16
2022-08-03T06:23:16.226Z,19.34
2022-08-03T06:25:44.864Z,19.34
2022-08-03T06:28:29.027Z,19.40
2022-08-03T06:31:01.134Z,19.59
2022-08-03T06:34:30.401Z,19.68
2022-08-03T06:36:15.413Z,19.76
2022-08-03T06:38:42.240Z,19.81
2022-08-03T06:41:08.964Z,20.02
2022-08-03T06:44:03.333Z,20.10
2022-08-03T06:46:25.900Z,20.15
2022-08-03T06:48:53.302Z,20.40
2022-08-03T06:51:20.081Z,20.48
2022-08-03T06:53:47.070Z,20.58
2022-08-03T06:56:13.772Z,20.75
2022-08-03T06:58:40.762Z,20.91
2022-08-03T07:01:07.581Z,21.00
2022-08-03T07:03:34.348Z,21.15
2022-08-03T07:06:02.317Z,21.42
2022-08-03T07:08:33.808Z,21.55
2022-08-03T07:11:01.462Z,21.65
2022-08-03T07:13:28.322Z,21.70
2022-08-03T07:15:56.368Z,21.76
2022-08-03T07:18:29.371Z,21.83
2022-08-03T07:20:58.295Z,21.85
2022-08-03T07:23:25.732Z,21.87
2022-08-03T07:25:52.712Z,22.03
2022-08-03T07:28:20.297Z,22.20
2022-08-03T07:30:47.470Z,22.30
2022-08-03T07:33:15.518Z,22.46
2022-08-03T07:35:42.547Z,22.42
2022-08-03T07:38:09.230Z,22.45
2022-08-03T07:40:36.049Z,22.41
2022-08-03T07:43:03.856Z,22.55
2022-08-03T07:45:34.203Z,22.70
2022-08-03T07:48:01.273Z,22.78
2022-08-03T07:50:28.232Z,22.90
2022-08-03T07:52:56.198Z,22.83
2022-08-03T07:55:24.523Z,22.96
2022-08-03T07:58:01.395Z,23.21
2022-08-03T08:00:28.732Z,23.74
2022-08-03T08:02:55.401Z,24.15
2022-08-03T08:05:22.050Z,23.75
2022-08-03T08:07:50.723Z,23.62
2022-08-03T08:10:19.126Z,23.70
2022-08-03T08:12:46.379Z,23.73
2022-08-03T08:15:13.238Z,23.74
2022-08-03T08:17:46.974Z,23.73
2022-08-03T08:20:16.440Z,23.64
2022-08-03T08:22:56.037Z,23.80
2022-08-03T08:25:24.090Z,24.56
2022-08-03T08:28:22.362Z,24.27
2022-08-03T08:30:38.113Z,24.09
2022-08-03T08:33:04.784Z,24.03
2022-08-03T08:35:31.662Z,24.03
2022-08-03T08:38:00.367Z,24.14
2022-08-03T08:40:32.337Z,24.22
2022-08-03T08:42:59.297Z,24.31
2022-08-03T08:45:26.090Z,24.46
2022-08-03T08:48:00.189Z,24.40
2022-08-03T08:50:28.781Z,24.36
2022-08-03T08:52:56.431Z,24.35
2022-08-03T08:55:23.794Z,24.40
2022-08-03T08:57:52.665Z,24.40
2022-08-03T09:00:19.259Z,24.38
2022-08-03T09:02:46.922Z,24.45
2022-08-03T09:05:14.496Z,24.61
2022-08-03T09:07:44.437Z,24.70
2022-08-03T09:10:13.751Z,24.73
2022-08-03T09:12:45.723Z,24.76
2022-08-03T09:15:25.933Z,24.85
2022-08-03T09:17:53.883Z,24.89
2022-08-03T09:20:21.101Z,24.85
2022-08-03T09:23:24.990Z,24.93
2022-08-03T09:25:59.886Z,25.04
2022-08-03T09:28:58.051Z,25.09
2022-08-03T09:31:20.274Z,25.16
2022-08-03T09:33:47.705Z,25.25
2022-08-03T09:36:34.536Z,25.21
2022-08-03T09:39:03.298Z,25.28
2022-08-03T09:41:33.535Z,25.33
2022-08-03T09:44:00.118Z,25.38
2022-08-03T09:46:28.616Z,25.40
2022-08-03T09:49:11.941Z,25.55
2022-08-03T09:52:31.335Z,25.53
2022-08-03T09:54:27.434Z,25.60
2022-08-03T09:56:54.174Z,25.86
2022-08-03T09:59:28.384Z,25.96
2022-08-03T10:01:55.995Z,26.04
2022-08-03T10:04:23.155Z,26.08
2022-08-03T10:07:09.354Z,26.13
2022-08-03T10:09:37.074Z,26.08
2022-08-03T10:12:17.170Z,25.86
2022-08-03T10:14:45.837Z,25.67
2022-08-03T10:17:12.534Z,25.65
2022-08-03T10:19:39.361Z,25.73
2022-08-03T10:22:15.166Z,25.92
2022-08-03T10:24:58.874Z,25.94
2022-08-03T10:27:27.704Z,25.82
2022-08-03T10:29:58.120Z,25.92
2022-08-03T10:32:24.882Z,26.04
2022-08-03T10:34:52.316Z,26.08
2022-08-03T10:37:29.622Z,26.19
2022-08-03T10:39:58.437Z,26.15
2022-08-03T10:42:27.229Z,26.18
2022-08-03T10:44:58.791Z,26.26
2022-08-03T10:47:25.396Z,26.32
2022-08-03T10:49:53.105Z,26.32
2022-08-03T10:52:31.899Z,26.28
2022-08-03T10:55:20.650Z,26.29
2022-08-03T10:57:50.171Z,26.31
2022-08-03T11:00:20.575Z,26.35
2022-08-03T11:03:06.503Z,26.43
2022-08-03T11:05:35.056Z,26.54
2022-08-03T11:08:21.486Z,26.53
2022-08-03T11:10:49.243Z,26.54
2022-08-03T11:13:17.163Z,26.64
2022-08-03T11:15:46.596Z,26.63
2022-08-03T11:18:13.982Z,26.65
2022-08-03T11:20:48.015Z,26.62
2022-08-03T11:23:15.830Z,26.65
2022-08-03T11:26:01.077Z,26.60
2022-08-03T11:28:29.104Z,26.74
2022-08-03T11:30:57.876Z,26.70
2022-08-03T11:33:31.553Z,26.72
2022-08-03T11:35:59.259Z,26.73
2022-08-03T11:38:25.886Z,26.76
2022-08-03T11:40:53.382Z,26.86
2022-08-03T11:43:30.439Z,26.80
2022-08-03T11:46:04.813Z,26.76
2022-08-03T11:48:35.527Z,26.81
2022-08-03T11:51:02.534Z,26.86
2022-08-03T11:53:29.325Z,26.95
2022-08-03T11:55:58.520Z,26.91
2022-08-03T11:59:10.993Z,26.94
2022-08-03T12:01:12.626Z,26.94
2022-08-03T12:03:39.255Z,26.98
2022-08-03T12:06:09.971Z,27.06
2022-08-03T12:08:36.522Z,27.13
2022-08-03T12:11:06.687Z,27.07
2022-08-03T12:14:37.372Z,27.14
2022-08-03T12:16:30.711Z,27.22
2022-08-03T12:19:01.390Z,27.27
2022-08-03T12:21:28.705Z,27.36
2022-08-03T12:24:02.316Z,27.35
2022-08-03T12:26:29.846Z,27.38
2022-08-03T12:28:56.436Z,27.48
2022-08-03T12:31:23.036Z,27.50
2022-08-03T12:33:58.930Z,27.42
2022-08-03T12:36:26.110Z,27.56
2022-08-03T12:38:57.053Z,27.56
2022-08-03T12:41:29.913Z,27.55
2022-08-03T12:43:57.808Z,27.70
2022-08-03T12:46:30.092Z,27.76
2022-08-03T12:49:11.381Z,27.97
2022-08-03T12:51:56.122Z,28.08
2022-08-03T12:54:25.090Z,28.17
2022-08-03T12:57:05.525Z,28.29
2022-08-03T12:59:52.628Z,28.62
2022-08-03T13:02:20.862Z,28.74
2022-08-03T13:04:51.233Z,28.78
2022-08-03T13:07:18.429Z,28.82
2022-08-03T13:09:55.987Z,28.93
2022-08-03T13:12:23.955Z,29.04
2022-08-03T13:14:52.250Z,29.10
2022-08-03T13:17:19.361Z,29.20
2022-08-03T13:19:47.393Z,29.32
2022-08-03T13:22:15.784Z,29.52
2022-08-03T13:24:42.863Z,29.88
2022-08-03T13:28:01.630Z,30.09
2022-08-03T13:29:56.540Z,30.37
2022-08-03T13:32:23.645Z,30.40
2022-08-03T13:34:50.246Z,30.62
2022-08-03T13:37:16.830Z,30.84
2022-08-03T13:39:57.646Z,31.14
2022-08-03T13:42:26.995Z,31.46
2022-08-03T13:44:53.503Z,31.69
2022-08-03T13:47:21.004Z,31.81
2022-08-03T13:49:59.466Z,31.74
2022-08-03T13:52:28.978Z,31.79
2022-08-03T13:54:55.654Z,31.92
2022-08-03T13:58:04.252Z,32.14
2022-08-03T14:00:09.485Z,32.30
2022-08-03T14:02:36.264Z,32.56
2022-08-03T14:05:02.902Z,32.53
2022-08-03T14:07:29.470Z,32.75
2022-08-03T14:09:58.217Z,32.92
2022-08-03T14:12:24.853Z,33.26
2022-08-03T14:14:55.996Z,33.41
2022-08-03T14:17:25.303Z,33.32
2022-08-03T14:19:54.026Z,33.19
2022-08-03T14:22:22.008Z,33.38
2022-08-03T14:24:49.170Z,33.39
2022-08-03T14:27:16.215Z,33.35
2022-08-03T14:29:42.950Z,33.34
2022-08-03T14:32:13.193Z,33.53
2022-08-03T14:34:40.520Z,33.48
2022-08-03T14:37:07.378Z,33.43
2022-08-03T14:42:20.874Z,33.64
2022-08-03T14:44:47.640Z,33.80
2022-08-03T14:47:14.521Z,33.59
2022-08-03T14:50:38.728Z,33.92
2022-08-03T14:52:28.008Z,33.68
2022-08-03T14:54:54.593Z,33.88
2022-08-03T14:57:21.489Z,34.18
2022-08-03T14:59:55.887Z,34.36
2022-08-03T15:02:24.721Z,34.31
2022-08-03T15:04:51.828Z,33.86
2022-08-03T15:07:18.832Z,33.73
2022-08-03T15:09:46.147Z,33.69
2022-08-03T15:12:12.696Z,33.77
2022-08-03T15:14:39.343Z,34.01
2022-08-03T15:17:07.626Z,34.24
2022-08-03T15:20:03.681Z,34.31
2022-08-03T15:22:24.925Z,33.90
2022-08-03T15:24:52.526Z,33.78
2022-08-03T15:27:19.362Z,33.90
2022-08-03T15:30:08.114Z,33.87
2022-08-03T15:32:35.808Z,33.82
2022-08-03T15:35:02.748Z,33.69
2022-08-03T15:37:30.699Z,33.59
2022-08-03T15:39:59.713Z,33.84
2022-08-03T15:42:30.853Z,34.34
2022-08-03T15:44:57.703Z,34.71
2022-08-03T15:47:24.546Z,35.04
2022-08-03T15:49:53.684Z,35.46
2022-08-03T15:52:20.238Z,35.30
2022-08-03T15:54:46.826Z,35.04
2022-08-03T15:57:13.398Z,34.80
2022-08-03T15:59:39.957Z,34.67
2022-08-03T16:02:06.523Z,34.23
2022-08-03T16:04:33.261Z,34.00
2022-08-03T16:06:59.770Z,33.60
2022-08-03T16:09:43.180Z,33.74
2022-08-03T16:12:16.444Z,33.74
2022-08-03T16:14:53.356Z,33.49
2022-08-03T16:17:21.774Z,33.58
2022-08-03T16:19:48.735Z,33.65
2022-08-03T16:22:17.487Z,33.67
2022-08-03T16:24:46.780Z,33.42
2022-08-03T16:27:36.833Z,33.24
2022-08-03T16:30:00.135Z,33.08
2022-08-03T16:32:26.817Z,32.78
2022-08-03T16:34:53.399Z,32.54
2022-08-03T16:37:38.288Z,32.35
2022-08-03T16:40:08.945Z,32.48
2022-08-03T16:42:44.336Z,32.53
2022-08-03T16:45:11.044Z,32.41
2022-08-03T16:47:37.824Z,32.46
2022-08-03T16:50:12.968Z,32.28
2022-08-03T16:52:51.850Z,32.26
2022-08-03T16:55:52.190Z,32.29
2022-08-03T16:58:07.734Z,32.09
2022-08-03T17:00:41.270Z,31.52
2022-08-03T17:03:12.592Z,30.84
2022-08-03T17:05:48.226Z,30.32
2022-08-03T17:08:16.577Z,29.89
2022-08-03T17:10:53.108Z,29.33
2022-08-03T17:13:21.738Z,29.03
2022-08-03T17:15:57.741Z,28.71
2022-08-03T17:18:26.770Z,28.33
2022-08-03T17:20:55.048Z,28.20
2022-08-03T17:23:36.348Z,27.99
2022-08-03T17:26:08.958Z,27.71
2022-08-03T17:28:49.982Z,27.71
2022-08-03T17:31:23.209Z,27.48
2022-08-03T17:33:57.868Z,27.26
2022-08-03T17:36:41.825Z,27.20
2022-08-03T17:39:16.631Z,27.02
2022-08-03T17:41:50.221Z,26.96
2022-08-03T17:44:29.525Z,26.82
2022-08-03T17:47:07.289Z,26.52
2022-08-03T17:49:40.110Z,26.38
2022-08-03T17:52:41.564Z,26.20
2022-08-03T17:55:57.427Z,26.00
2022-08-03T17:58:34.085Z,25.91
2022-08-03T18:02:02.529Z,25.79
2022-08-03T18:04:11.996Z,25.62
2022-08-03T18:06:56.152Z,25.48
2022-08-03T18:10:04.202Z,25.26
2022-08-03T18:12:29.134Z,25.03
2022-08-03T18:15:08.425Z,24.94
2022-08-03T18:17:55.720Z,24.77
2022-08-03T18:20:31.330Z,24.66
2022-08-03T18:23:04.682Z,24.68
2022-08-03T18:25:43.138Z,24.59
2022-08-03T18:28:15.947Z,24.47
2022-08-03T18:30:53.716Z,24.35
2022-08-03T18:34:32.619Z,24.17
2022-08-03T18:36:21.748Z,24.08
2022-08-03T18:38:58.396Z,23.96
2022-08-03T18:41:32.754Z,23.86
2022-08-03T18:44:06.791Z,23.80
2022-08-03T18:46:50.468Z,23.68
2022-08-03T18:49:35.338Z,23.65
2022-08-03T18:52:20.809Z,23.65
2022-08-03T18:55:11.111Z,23.47
2022-08-03T18:57:50.426Z,23.38
2022-08-03T19:00:24.384Z,23.38
2022-08-03T19:03:05.245Z,23.30
2022-08-03T19:05:57.774Z,23.26
2022-08-03T19:08:36.971Z,23.23
2022-08-03T19:11:06.106Z,23.05
2022-08-03T19:13:50.205Z,22.97
2022-08-03T19:16:27.795Z,22.93
2022-08-03T19:18:59.140Z,22.95
2022-08-03T19:21:33.656Z,22.96
2022-08-03T19:24:06.737Z,22.91
2022-08-03T19:26:38.659Z,22.83
2022-08-03T19:29:14.749Z,22.78
2022-08-03T19:31:58.712Z,22.69
2022-08-03T19:34:28.771Z,22.64
2022-08-03T19:36:58.670Z,22.61
2022-08-03T19:39:25.825Z,22.54
2022-08-03T19:41:58.351Z,22.48
2022-08-03T19:44:38.488Z,22.38
2022-08-03T19:47:07.673Z,22.32
2022-08-03T19:50:05.303Z,22.30
2022-08-03T19:52:31.224Z,22.27
2022-08-03T19:55:02.545Z,22.24
2022-08-03T19:57:32.793Z,22.21
2022-08-03T20:00:15.891Z,22.13
2022-08-03T20:02:42.954Z,22.06
2022-08-03T20:05:15.138Z,22.05
2022-08-03T20:07:47.671Z,21.89
2022-08-03T20:10:16.655Z,21.81
2022-08-03T20:12:46.081Z,21.81
2022-08-03T20:15:13.917Z,21.76
2022-08-03T20:17:55.964Z,21.56
2022-08-03T20:20:33.362Z,21.32
2022-08-03T20:23:06.918Z,21.15
2022-08-03T20:25:38.440Z,21.09
2022-08-03T20:28:13.881Z,20.99
2022-08-03T20:30:46.450Z,20.91
2022-08-03T20:33:18.952Z,20.66
2022-08-03T20:36:01.746Z,20.40
2022-08-03T20:38:28.464Z,20.34
2022-08-03T20:40:56.647Z,20.33
2022-08-03T20:43:25.856Z,20.32
2022-08-03T20:45:59.125Z,20.25
2022-08-03T20:48:42.035Z,20.28
2022-08-03T20:51:20.016Z,20.29
2022-08-03T20:54:07.834Z,20.28
2022-08-03T20:56:49.826Z,20.15
2022-08-03T20:59:16.768Z,20.24
2022-08-03T21:01:49.434Z,20.20
2022-08-03T21:04:16.328Z,20.22
2022-08-03T21:06:53.308Z,20.30
2022-08-03T21:09:23.838Z,20.28
2022-08-03T21:12:01.410Z,20.13
2022-08-03T21:14:37.776Z,20.05
2022-08-03T21:17:14.123Z,20.01
2022-08-03T21:19:51.676Z,19.94
2022-08-03T21:22:22.528Z,19.98
2022-08-03T21:24:55.961Z,20.02
2022-08-03T21:27:24.407Z,19.83
2022-08-03T21:29:53.195Z,19.78
2022-08-03T21:32:32.582Z,19.72
2022-08-03T21:35:00.751Z,19.70
2022-08-03T21:37:28.514Z,19.68
2022-08-03T21:39:56.203Z,19.63
2022-08-03T21:42:26.183Z,19.60
2022-08-03T21:44:53.647Z,19.52
2022-08-03T21:47:24.441Z,19.52
2022-08-03T21:50:08.250Z,19.59
2022-08-03T21:52:46.547Z,19.58
2022-08-03T21:55:20.944Z,19.52
2022-08-03T21:57:53.192Z,19.52
2022-08-03T22:00:22.023Z,19.54
2022-08-03T22:02:57.172Z,19.48
2022-08-03T22:05:28.897Z,19.31
2022-08-03T22:08:09.496Z,19.14
2022-08-03T22:10:37.862Z,19.16
2022-08-03T22:13:04.465Z,19.12
2022-08-03T22:15:31.710Z,19.05
2022-08-03T22:18:03.566Z,18.97
2022-08-03T22:20:30.513Z,18.86
2022-08-03T22:23:01.769Z,18.86
2022-08-03T22:25:39.328Z,18.75
2022-08-03T22:28:11.355Z,18.69
2022-08-03T22:30:39.317Z,18.63
2022-08-03T22:33:11.227Z,18.63
2022-08-03T22:35:49.072Z,18.61
2022-08-03T22:38:17.456Z,18.57
2022-08-03T22:40:44.867Z,18.58
2022-08-03T22:43:11.590Z,18.46
2022-08-03T22:46:06.981Z,18.50
2022-08-03T22:48:26.968Z,18.45
2022-08-03T22:50:55.987Z,18.44
2022-08-03T22:53:22.737Z,18.32
2022-08-03T22:55:50.624Z,18.25
2022-08-03T22:58:20.851Z,18.19
2022-08-03T23:01:00.171Z,18.11
2022-08-03T23:04:00.253Z,18.11
2022-08-03T23:06:21.920Z,18.10
2022-08-03T23:08:50.428Z,18.12
2022-08-03T23:11:18.811Z,18.14
2022-08-03T23:13:50.383Z,18.19
2022-08-03T23:16:28.719Z,18.18
2022-08-03T23:18:56.425Z,19.06
2022-08-03T23:21:53.890Z,18.66
2022-08-03T23:24:25.967Z,18.39
2022-08-03T23:26:57.174Z,18.10
2022-08-03T23:29:24.697Z,18.12
2022-08-03T23:31:52.872Z,18.12
2022-08-03T23:34:38.206Z,18.05
2022-08-03T23:37:05.763Z,18.03
2022-08-03T23:39:35.161Z,17.98
2022-08-03T23:42:03.154Z,17.95
2022-08-03T23:44:37.378Z,17.96
2022-08-03T23:47:04.199Z,17.89
2022-08-03T23:49:31.246Z,17.89
2022-08-03T23:52:08.648Z,17.84
2022-08-03T23:54:59.266Z,17.84
2022-08-03T23:57:28.872Z,17.86
2022-08-03T23:59:58.286Z,17.85
